createdAt,value
2023-02-23T00:02:25.493Z,11.95
2023-02-23T00:04:52.808Z,10.15
2023-02-23T00:07:22.222Z,9.25
2023-02-23T00:09:50.900Z,9.15
2023-02-23T00:12:18.290Z,10.60
2023-02-23T00:14:47.808Z,10.82
2023-02-23T00:17:17.534Z,9.13
2023-02-23T00:19:49.238Z,9.52
2023-02-23T00:24:43.597Z,8.75
2023-02-23T00:27:17.514Z,8.20
2023-02-23T00:29:49.654Z,9.48
2023-02-23T00:32:20.744Z,8.52
2023-02-23T00:34:51.308Z,9.93
2023-02-23T00:37:23.038Z,8.65
2023-02-23T00:42:23.683Z,10.13
2023-02-23T00:44:51.049Z,9.80
2023-02-23T00:47:25.388Z,11.23
2023-02-23T00:49:52.783Z,9.77
2023-02-23T00:52:20.174Z,9.30
2023-02-23T00:54:49.867Z,10.57
2023-02-23T00:57:17.103Z,10.30
2023-02-23T00:59:44.365Z,10.40
2023-02-23T01:02:14.066Z,9.40
2023-02-23T01:04:43.463Z,10.13
2023-02-23T01:07:12.975Z,8.23
2023-02-23T01:09:43.670Z,10.52
2023-02-23T01:12:10.957Z,10.68
2023-02-23T01:14:38.234Z,10.00
2023-02-23T01:17:05.618Z,11.30
2023-02-23T01:19:35.230Z,10.18
2023-02-23T01:22:04.916Z,11.60
2023-02-23T01:24:32.226Z,9.52
2023-02-23T01:26:59.483Z,10.85
2023-02-23T01:29:26.783Z,9.40
2023-02-23T01:31:56.685Z,9.50
2023-02-23T01:34:24.061Z,8.50
2023-02-23T01:36:55.788Z,10.55
2023-02-23T01:41:52.555Z,13.65
2023-02-23T01:44:20.054Z,8.95
2023-02-23T01:46:50.596Z,10.27
2023-02-23T01:49:27.398Z,10.05
2023-02-23T01:52:11.331Z,9.90
2023-02-23T01:54:54.701Z,9.07
2023-02-23T01:57:25.051Z,10.02
2023-02-23T01:59:53.718Z,10.75
2023-02-23T02:02:24.478Z,10.00
2023-02-23T02:04:52.784Z,9.93
2023-02-23T02:07:27.754Z,9.75
2023-02-23T02:10:17.557Z,11.20
2023-02-23T02:12:54.304Z,10.00
2023-02-23T02:15:26.093Z,10.95
2023-02-23T02:20:55.075Z,10.15
2023-02-23T02:23:37.190Z,12.57
2023-02-23T02:26:23.056Z,11.27
2023-02-23T02:28:59.948Z,12.80
2023-02-23T02:31:58.709Z,12.73
2023-02-23T02:34:54.292Z,10.93
2023-02-23T02:37:21.467Z,11.10
2023-02-23T02:40:16.449Z,13.90
2023-02-23T02:43:10.294Z,12.40
2023-02-23T02:45:59.546Z,10.90
2023-02-23T02:48:26.850Z,12.80
2023-02-23T02:51:01.234Z,12.43
2023-02-23T02:53:45.591Z,13.27
2023-02-23T02:56:19.917Z,11.63
2023-02-23T02:58:50.678Z,11.48
2023-02-23T03:01:37.838Z,10.52
2023-02-23T03:04:43.065Z,10.02
2023-02-23T03:07:39.838Z,9.50
2023-02-23T03:10:33.475Z,9.00
2023-02-23T03:13:35.164Z,9.90
2023-02-23T03:16:33.632Z,13.07
2023-02-23T03:19:45.390Z,8.48
2023-02-23T03:22:42.694Z,9.13
2023-02-23T03:25:42.606Z,10.23
2023-02-23T03:28:43.943Z,10.23
2023-02-23T03:31:35.186Z,10.50
2023-02-23T03:34:54.935Z,9.00
2023-02-23T03:37:50.149Z,9.93
2023-02-23T03:40:44.885Z,9.43
2023-02-23T03:43:36.601Z,10.35
2023-02-23T03:46:25.500Z,10.38
2023-02-23T03:49:14.504Z,9.25
2023-02-23T03:52:06.293Z,9.00
2023-02-23T03:54:59.519Z,10.25
2023-02-23T03:57:48.121Z,10.05
2023-02-23T04:00:42.740Z,11.38
2023-02-23T04:03:34.674Z,9.45
2023-02-23T04:06:25.902Z,9.07
2023-02-23T04:09:14.920Z,10.55
2023-02-23T04:12:26.709Z,12.90
2023-02-23T04:15:10.583Z,10.48
2023-02-23T04:17:38.261Z,12.52
2023-02-23T04:20:07.092Z,10.48
2023-02-23T04:22:36.803Z,10.82
2023-02-23T04:25:06.152Z,9.73
2023-02-23T04:27:35.760Z,9.82
2023-02-23T04:30:03.850Z,8.48
2023-02-23T04:32:31.190Z,12.18
2023-02-23T04:34:58.597Z,9.95
2023-02-23T04:37:25.875Z,10.18
2023-02-23T04:39:53.153Z,10.95
2023-02-23T04:42:20.458Z,10.05
2023-02-23T04:44:50.250Z,10.25
2023-02-23T04:47:17.714Z,10.52
2023-02-23T04:49:45.017Z,10.55
2023-02-23T04:52:12.483Z,9.73
2023-02-23T04:54:43.388Z,8.80
2023-02-23T04:57:10.692Z,11.98
2023-02-23T04:59:38.204Z,11.18
2023-02-23T05:02:06.291Z,11.45
2023-02-23T05:04:36.536Z,11.10
2023-02-23T05:07:04.648Z,10.40
2023-02-23T05:09:34.988Z,10.50
2023-02-23T05:12:05.028Z,10.95
2023-02-23T05:14:32.682Z,8.88
2023-02-23T05:17:02.368Z,11.25
2023-02-23T05:19:29.779Z,9.45
2023-02-23T05:21:57.029Z,11.18
2023-02-23T05:24:24.284Z,11.20
2023-02-23T05:26:51.590Z,10.48
2023-02-23T05:29:21.236Z,11.55
2023-02-23T05:31:48.654Z,9.73
2023-02-23T05:34:18.642Z,10.57
2023-02-23T05:36:48.047Z,10.02
2023-02-23T05:39:15.327Z,11.27
2023-02-23T05:41:45.111Z,10.02
2023-02-23T05:44:12.626Z,11.98
2023-02-23T05:46:42.144Z,11.00
2023-02-23T05:49:13.950Z,12.60
2023-02-23T05:54:09.330Z,12.20
2023-02-23T05:56:36.657Z,11.65
2023-02-23T05:59:06.159Z,12.40
2023-02-23T06:01:36.294Z,10.23
2023-02-23T06:04:06.315Z,13.20
2023-02-23T06:06:33.725Z,9.90
2023-02-23T06:09:01.741Z,10.15
2023-02-23T06:11:29.175Z,11.18
2023-02-23T06:13:59.478Z,13.07
2023-02-23T06:16:27.461Z,12.75
2023-02-23T06:18:57.038Z,13.43
2023-02-23T06:21:25.145Z,11.48
2023-02-23T06:23:53.430Z,11.95
2023-02-23T06:26:25.789Z,13.45
2023-02-23T06:28:53.034Z,11.48
2023-02-23T06:31:20.561Z,12.27
2023-02-23T06:33:50.931Z,12.65
2023-02-23T06:36:18.679Z,13.60
2023-02-23T06:38:46.701Z,11.10
2023-02-23T06:41:14.005Z,11.45
2023-02-23T06:43:41.307Z,11.50
2023-02-23T06:46:08.688Z,11.30
2023-02-23T06:48:36.232Z,13.02
2023-02-23T06:51:05.710Z,12.25
2023-02-23T06:53:33.659Z,14.05
2023-02-23T06:56:01.541Z,14.73
2023-02-23T06:58:29.081Z,12.40
2023-02-23T07:01:00.342Z,12.02
2023-02-23T07:03:27.572Z,10.65
2023-02-23T07:05:57.402Z,11.50
2023-02-23T07:08:24.682Z,12.77
2023-02-23T07:10:54.418Z,14.85
2023-02-23T07:13:22.196Z,11.40
2023-02-23T07:15:51.856Z,12.35
2023-02-23T07:18:19.103Z,12.20
2023-02-23T07:20:51.905Z,12.55
2023-02-23T07:23:19.374Z,12.50
2023-02-23T07:25:46.749Z,11.68
2023-02-23T07:28:14.657Z,11.60
2023-02-23T07:30:41.938Z,11.95
2023-02-23T07:33:09.334Z,11.88
2023-02-23T07:35:38.829Z,14.13
2023-02-23T07:38:08.272Z,12.20
2023-02-23T07:40:35.632Z,12.50
2023-02-23T07:43:02.981Z,13.50
2023-02-23T07:45:30.300Z,14.60
2023-02-23T07:47:57.540Z,13.38
2023-02-23T07:50:27.142Z,13.35
2023-02-23T07:52:54.376Z,14.55
2023-02-23T07:55:22.543Z,13.32
2023-02-23T07:57:52.348Z,16.90
2023-02-23T08:00:22.218Z,15.82
2023-02-23T08:02:49.520Z,24.58
2023-02-23T08:05:17.149Z,16.83
2023-02-23T08:07:46.670Z,16.38
2023-02-23T08:10:13.922Z,16.42
2023-02-23T08:12:41.259Z,19.52
2023-02-23T08:15:09.455Z,15.15
2023-02-23T08:17:39.859Z,15.23
2023-02-23T08:20:08.486Z,16.00
2023-02-23T08:22:49.317Z,15.65
2023-02-23T08:25:17.961Z,17.02
2023-02-23T08:27:46.036Z,13.93
2023-02-23T08:30:14.369Z,15.65
2023-02-23T08:32:41.724Z,19.15
2023-02-23T08:35:12.614Z,14.32
2023-02-23T08:37:45.402Z,15.00
2023-02-23T08:40:15.538Z,16.70
2023-02-23T08:42:43.061Z,15.25
2023-02-23T08:45:11.562Z,16.02
2023-02-23T08:47:38.863Z,16.65
2023-02-23T08:50:06.632Z,17.33
2023-02-23T08:52:34.147Z,18.25
2023-02-23T08:55:01.377Z,15.05
2023-02-23T08:57:36.050Z,17.83
2023-02-23T09:00:11.867Z,16.38
2023-02-23T09:02:41.776Z,18.38
2023-02-23T09:05:09.818Z,16.67
2023-02-23T09:07:39.008Z,17.02
2023-02-23T09:10:06.999Z,17.42
2023-02-23T09:12:36.605Z,21.38
2023-02-23T09:15:04.146Z,18.40
2023-02-23T09:17:33.904Z,17.40
2023-02-23T09:20:02.136Z,17.60
2023-02-23T09:22:31.969Z,19.25
2023-02-23T09:24:59.401Z,16.27
2023-02-23T09:27:26.729Z,17.80
2023-02-23T09:29:53.997Z,18.63
2023-02-23T09:32:21.525Z,17.83
2023-02-23T09:34:52.603Z,17.35
2023-02-23T09:37:22.392Z,20.60
2023-02-23T09:39:49.646Z,18.27
2023-02-23T09:42:45.669Z,18.00
2023-02-23T09:45:21.321Z,19.35
2023-02-23T09:48:00.736Z,19.45
2023-02-23T09:50:32.344Z,22.42
2023-02-23T09:53:15.472Z,18.08
2023-02-23T09:55:47.689Z,18.08
2023-02-23T09:58:22.367Z,20.15
2023-02-23T10:01:12.040Z,19.63
2023-02-23T10:03:54.086Z,19.33
2023-02-23T10:06:21.997Z,19.67
2023-02-23T10:09:11.383Z,17.45
2023-02-23T10:12:03.154Z,21.38
2023-02-23T10:14:48.169Z,20.08
2023-02-23T10:17:26.404Z,17.75
2023-02-23T10:20:10.872Z,21.27
2023-02-23T10:22:41.620Z,25.30
2023-02-23T10:25:16.032Z,20.27
2023-02-23T10:27:49.095Z,19.98
2023-02-23T10:30:24.061Z,20.63
2023-02-23T10:33:13.304Z,19.92
2023-02-23T10:35:40.572Z,20.83
2023-02-23T10:38:14.811Z,20.85
2023-02-23T10:40:46.828Z,22.08
2023-02-23T10:43:15.090Z,20.15
2023-02-23T10:45:56.245Z,18.95
2023-02-23T10:48:35.938Z,20.58
2023-02-23T10:51:11.885Z,20.17
2023-02-23T10:53:41.685Z,20.33
2023-02-23T10:56:11.034Z,21.08
2023-02-23T10:58:52.384Z,21.23
2023-02-23T11:02:00.769Z,23.42
2023-02-23T11:04:35.044Z,29.42
2023-02-23T11:07:13.005Z,21.05
2023-02-23T11:09:47.221Z,22.52
2023-02-23T11:12:21.741Z,22.55
2023-02-23T11:14:51.689Z,20.42
2023-02-23T11:17:30.202Z,22.65
2023-02-23T11:20:14.353Z,40.00
2023-02-23T11:22:42.421Z,24.75
2023-02-23T11:25:31.768Z,53.20
2023-02-23T11:27:59.859Z,31.65
2023-02-23T11:30:37.158Z,46.00
2023-02-23T11:33:11.880Z,35.78
2023-02-23T11:35:43.903Z,26.40
2023-02-23T11:38:27.085Z,21.73
2023-02-23T11:41:24.928Z,25.33
2023-02-23T11:43:58.164Z,21.25
2023-02-23T11:46:28.110Z,23.23
2023-02-23T11:49:04.327Z,25.33
2023-02-23T11:51:45.896Z,23.33
2023-02-23T11:54:27.939Z,22.42
2023-02-23T11:56:58.612Z,20.90
2023-02-23T11:59:32.629Z,22.50
2023-02-23T12:02:04.961Z,22.85
2023-02-23T12:04:40.970Z,24.10
2023-02-23T12:07:25.146Z,20.17
2023-02-23T12:10:12.239Z,24.17
2023-02-23T12:12:58.113Z,22.02
2023-02-23T12:15:32.269Z,25.70
2023-02-23T12:18:25.281Z,25.48
2023-02-23T12:20:57.926Z,22.80
2023-02-23T12:23:29.198Z,24.58
2023-02-23T12:26:12.659Z,24.23
2023-02-23T12:28:45.772Z,22.80
2023-02-23T12:31:26.131Z,25.67
2023-02-23T12:34:09.780Z,22.35
2023-02-23T12:36:49.813Z,23.10
2023-02-23T12:39:35.950Z,25.20
2023-02-23T12:42:06.232Z,25.95
2023-02-23T12:44:52.433Z,23.67
2023-02-23T12:47:49.269Z,23.90
2023-02-23T12:50:25.522Z,24.83
2023-02-23T12:53:08.191Z,24.55
2023-02-23T12:56:05.910Z,25.08
2023-02-23T12:58:38.968Z,27.27
2023-02-23T13:01:14.657Z,26.50
2023-02-23T13:04:29.501Z,24.48
2023-02-23T13:07:34.457Z,24.38
2023-02-23T13:10:16.242Z,20.98
2023-02-23T13:16:00.442Z,21.95
2023-02-23T13:18:37.065Z,25.05
2023-02-23T13:21:34.813Z,26.02
2023-02-23T13:24:07.167Z,22.95
2023-02-23T13:27:03.593Z,25.20
2023-02-23T13:29:37.643Z,23.10
2023-02-23T13:32:11.317Z,23.67
2023-02-23T13:34:58.566Z,26.30
2023-02-23T13:37:32.219Z,24.92
2023-02-23T13:40:24.224Z,27.70
2023-02-23T13:43:17.944Z,26.35
2023-02-23T13:45:51.912Z,22.55
2023-02-23T13:48:55.293Z,22.83
2023-02-23T13:52:05.983Z,25.80
2023-02-23T13:54:34.615Z,26.20
2023-02-23T13:57:05.763Z,26.55
2023-02-23T13:59:43.882Z,25.10
2023-02-23T14:02:39.147Z,26.95
2023-02-23T14:05:20.450Z,25.05
2023-02-23T14:07:53.086Z,24.80
2023-02-23T14:10:24.888Z,24.20
2023-02-23T14:13:13.867Z,27.10
2023-02-23T14:15:43.000Z,23.58
2023-02-23T14:18:19.440Z,26.90
2023-02-23T14:20:54.153Z,27.45
2023-02-23T14:23:23.521Z,27.10
2023-02-23T14:26:09.861Z,25.65
2023-02-23T14:28:50.309Z,26.48
2023-02-23T14:31:22.596Z,25.77
2023-02-23T14:33:59.244Z,28.15
2023-02-23T14:36:29.114Z,24.35
2023-02-23T14:39:00.381Z,24.13
2023-02-23T14:41:50.918Z,24.15
2023-02-23T14:44:30.194Z,24.25
2023-02-23T14:47:05.997Z,23.60
2023-02-23T14:49:38.924Z,25.77
2023-02-23T14:52:25.752Z,26.85
2023-02-23T14:55:18.000Z,24.85
2023-02-23T14:57:48.509Z,25.00
2023-02-23T15:00:24.046Z,25.48
2023-02-23T15:03:02.617Z,22.73
2023-02-23T15:05:55.198Z,28.17
2023-02-23T15:08:26.118Z,25.95
2023-02-23T15:11:01.641Z,26.35
2023-02-23T15:13:39.808Z,28.95
2023-02-23T15:16:13.823Z,27.50
2023-02-23T15:18:44.184Z,27.42
2023-02-23T15:21:16.288Z,25.90
2023-02-23T15:23:53.145Z,25.83
2023-02-23T15:26:32.078Z,29.15
2023-02-23T15:29:13.655Z,29.02
2023-02-23T15:31:55.274Z,24.80
2023-02-23T15:36:59.841Z,25.13
2023-02-23T15:39:56.927Z,30.50
2023-02-23T15:42:28.869Z,31.13
2023-02-23T15:45:04.985Z,29.92
2023-02-23T15:47:38.511Z,34.50
2023-02-23T15:50:21.965Z,38.80
2023-02-23T15:53:01.453Z,29.80
2023-02-23T15:55:38.275Z,29.42
2023-02-23T15:58:22.937Z,28.08
2023-02-23T16:00:58.335Z,27.77
2023-02-23T16:03:37.108Z,26.80
2023-02-23T16:06:23.710Z,32.58
2023-02-23T16:09:05.869Z,25.88
2023-02-23T16:11:38.538Z,31.23
2023-02-23T16:14:16.219Z,39.38
2023-02-23T16:16:46.669Z,35.25
2023-02-23T16:19:17.409Z,31.48
2023-02-23T16:21:53.797Z,30.93
2023-02-23T16:24:25.464Z,35.33
2023-02-23T16:29:32.356Z,35.53
2023-02-23T16:32:03.612Z,44.20
2023-02-23T16:34:44.891Z,40.80
2023-02-23T16:37:17.754Z,45.20
2023-02-23T16:39:48.219Z,45.17
2023-02-23T16:42:35.365Z,36.08
2023-02-23T16:45:05.141Z,34.63
2023-02-23T16:47:41.467Z,31.98
2023-02-23T16:50:25.814Z,30.40
2023-02-23T16:52:55.349Z,29.83
2023-02-23T16:55:28.030Z,29.55
2023-02-23T16:58:02.213Z,33.78
2023-02-23T17:00:32.547Z,29.27
2023-02-23T17:03:05.645Z,29.13
2023-02-23T17:05:33.383Z,31.92
2023-02-23T17:08:02.986Z,32.40
2023-02-23T17:10:32.975Z,31.05
2023-02-23T17:13:07.312Z,29.92
2023-02-23T17:15:39.873Z,27.27
2023-02-23T17:18:07.578Z,28.08
2023-02-23T17:20:34.869Z,31.42
2023-02-23T17:23:02.750Z,33.15
2023-02-23T17:25:35.133Z,31.05
2023-02-23T17:28:03.203Z,32.25
2023-02-23T17:30:31.524Z,29.88
2023-02-23T17:32:59.609Z,31.90
2023-02-23T17:35:27.465Z,35.08
2023-02-23T17:37:54.948Z,41.30
2023-02-23T17:40:31.203Z,63.88
2023-02-23T17:43:05.223Z,58.83
2023-02-23T17:45:32.927Z,57.30
2023-02-23T17:48:00.271Z,43.92
2023-02-23T17:50:28.530Z,42.47
2023-02-23T17:52:56.787Z,40.35
2023-02-23T17:55:24.850Z,35.35
2023-02-23T17:57:52.148Z,33.53
2023-02-23T18:00:20.291Z,33.85
2023-02-23T18:02:47.682Z,34.00
2023-02-23T18:05:15.746Z,37.22
2023-02-23T18:07:43.183Z,35.20
2023-02-23T18:10:14.575Z,33.45
2023-02-23T18:12:42.018Z,30.17
2023-02-23T18:15:11.611Z,34.70
2023-02-23T18:17:38.879Z,30.13
2023-02-23T18:20:09.249Z,32.55
2023-02-23T18:22:39.286Z,36.38
2023-02-23T18:25:19.711Z,30.05
2023-02-23T18:27:50.497Z,29.88
2023-02-23T18:30:17.808Z,30.70
2023-02-23T18:32:47.248Z,33.95
2023-02-23T18:35:14.889Z,34.97
2023-02-23T18:37:44.698Z,35.65
2023-02-23T18:40:21.268Z,34.75
2023-02-23T18:42:51.035Z,35.42
2023-02-23T18:45:18.406Z,32.78
2023-02-23T18:47:45.649Z,33.08
2023-02-23T18:50:19.024Z,35.28
2023-02-23T18:52:53.050Z,34.13
2023-02-23T18:55:22.242Z,36.97
2023-02-23T18:57:50.895Z,34.83
2023-02-23T19:00:19.373Z,33.00
2023-02-23T19:02:49.252Z,37.42
2023-02-23T19:05:20.124Z,35.28
2023-02-23T19:10:17.844Z,35.80
2023-02-23T19:12:45.144Z,35.60
2023-02-23T19:15:13.034Z,38.33
2023-02-23T19:17:42.824Z,36.10
2023-02-23T19:20:15.791Z,38.45
2023-02-23T19:22:46.024Z,35.30
2023-02-23T19:25:14.552Z,38.60
2023-02-23T19:27:42.277Z,36.40
2023-02-23T19:30:10.556Z,36.13
2023-02-23T19:32:39.770Z,35.38
2023-02-23T19:35:10.831Z,37.45
2023-02-23T19:37:40.003Z,39.97
2023-02-23T19:40:10.228Z,37.88
2023-02-23T19:42:43.017Z,37.75
2023-02-23T19:45:10.563Z,38.75
2023-02-23T19:47:40.690Z,40.38
2023-02-23T19:50:16.256Z,36.53
2023-02-23T19:52:50.132Z,35.22
2023-02-23T19:55:20.522Z,35.55
2023-02-23T19:57:50.151Z,39.70
2023-02-23T20:00:21.580Z,34.25
2023-02-23T20:02:54.846Z,42.42
2023-02-23T20:05:23.912Z,37.25
2023-02-23T20:07:51.802Z,39.20
2023-02-23T20:10:25.533Z,39.33
2023-02-23T20:12:53.410Z,33.30
2023-02-23T20:15:21.011Z,35.78
2023-02-23T20:17:48.592Z,37.60
2023-02-23T20:20:15.877Z,34.17
2023-02-23T20:22:45.009Z,34.03
2023-02-23T20:25:15.683Z,37.08
2023-02-23T20:27:44.228Z,34.20
2023-02-23T20:30:13.254Z,36.13
2023-02-23T20:32:43.230Z,37.60
2023-02-23T20:35:14.318Z,33.88
2023-02-23T20:37:41.741Z,36.42
2023-02-23T20:40:17.298Z,31.83
2023-02-23T20:42:48.453Z,37.00
2023-02-23T20:45:21.350Z,37.13
2023-02-23T20:47:53.181Z,42.28
2023-02-23T20:50:22.701Z,35.50
2023-02-23T20:52:50.241Z,34.33
2023-02-23T20:55:18.771Z,33.38
2023-02-23T20:57:47.989Z,37.63
2023-02-23T21:00:31.871Z,33.28
2023-02-23T21:03:01.205Z,35.58
2023-02-23T21:05:37.514Z,37.05
2023-02-23T21:08:08.870Z,35.88
2023-02-23T21:10:39.427Z,35.57
2023-02-23T21:13:10.746Z,39.13
2023-02-23T21:15:40.472Z,38.13
2023-02-23T21:18:08.285Z,35.97
2023-02-23T21:20:37.905Z,38.33
2023-02-23T21:23:08.013Z,37.13
2023-02-23T21:25:38.024Z,35.58
2023-02-23T21:28:05.270Z,35.72
2023-02-23T21:30:35.056Z,34.72
2023-02-23T21:33:03.796Z,33.70
2023-02-23T21:35:31.181Z,37.75
2023-02-23T21:38:01.316Z,35.20
2023-02-23T21:40:28.655Z,33.63
2023-02-23T21:42:56.015Z,33.83
2023-02-23T21:45:23.236Z,36.05
2023-02-23T21:47:54.853Z,35.60
2023-02-23T21:52:54.295Z,36.05
2023-02-23T21:55:22.457Z,34.13
2023-02-23T21:57:51.353Z,36.80
2023-02-23T22:00:19.119Z,36.55
2023-02-23T22:02:47.010Z,33.92
2023-02-23T22:05:18.827Z,38.35
2023-02-23T22:07:52.065Z,35.05
2023-02-23T22:10:23.870Z,34.58
2023-02-23T22:12:56.327Z,35.30
2023-02-23T22:15:27.686Z,34.78
2023-02-23T22:17:56.113Z,33.25
2023-02-23T22:20:23.670Z,35.33
2023-02-23T22:22:50.920Z,37.78
2023-02-23T22:25:19.849Z,35.10
2023-02-23T22:27:47.609Z,33.90
2023-02-23T22:30:15.454Z,33.85
2023-02-23T22:32:43.569Z,35.97
2023-02-23T22:35:13.623Z,35.10
2023-02-23T22:37:41.063Z,33.70
2023-02-23T22:40:13.599Z,33.75
2023-02-23T22:42:43.399Z,36.75
2023-02-23T22:45:11.538Z,34.95
2023-02-23T22:47:41.137Z,35.92
2023-02-23T22:50:19.316Z,34.63
2023-02-23T22:52:49.147Z,33.95
2023-02-23T22:55:16.474Z,33.47
2023-02-23T22:57:47.657Z,31.40
2023-02-23T23:00:19.139Z,31.38
2023-02-23T23:02:46.372Z,31.65
2023-02-23T23:05:18.945Z,32.95
2023-02-23T23:07:49.247Z,35.40
2023-02-23T23:10:17.859Z,32.55
2023-02-23T23:12:48.785Z,32.55
2023-02-23T23:15:19.941Z,28.52
2023-02-23T23:17:50.376Z,35.00
2023-02-23T23:20:25.651Z,36.42
2023-02-23T23:22:53.595Z,33.58
2023-02-23T23:25:23.119Z,33.60
2023-02-23T23:27:54.331Z,32.72
2023-02-23T23:30:21.750Z,33.53
2023-02-23T23:32:49.250Z,32.65
2023-02-23T23:35:20.648Z,32.35
2023-02-23T23:37:51.690Z,34.00
2023-02-23T23:40:24.310Z,33.83
2023-02-23T23:42:52.610Z,31.55
2023-02-23T23:45:24.340Z,30.70
2023-02-23T23:47:54.370Z,32.42
2023-02-23T23:50:26.616Z,31.23
2023-02-23T23:52:54.515Z,29.50
2023-02-23T23:55:22.348Z,27.15
2023-02-23T23:57:52.159Z,30.55
